sensor_id;sensor_type;location;lat;lon;timestamp;P1;P2;P0
72908;PMS5003;61051;62.624;17.950;2023-07-09T00:01:00;6;6;
72908;PMS5003;61051;62.624;17.950;2023-07-09T00:03:29;4;4;
72908;PMS5003;61051;62.624;17.950;2023-07-09T00:05:57;5;5;
72908;PMS5003;61051;62.624;17.950;2023-07-09T00:08:25;6;5;
72908;PMS5003;61051;62.624;17.950;2023-07-09T00:10:57;7;5;
72908;PMS5003;61051;62.624;17.950;2023-07-09T00:13:27;5;5;
72908;PMS5003;61051;62.624;17.950;2023-07-09T00:15:57;6;6;
72908;PMS5003;61051;62.624;17.950;2023-07-09T00:18:28;3;3;
72908;PMS5003;61051;62.624;17.950;2023-07-09T00:20:56;4;4;
72908;PMS5003;61051;62.624;17.950;2023-07-09T00:23:25;5;5;
72908;PMS5003;61051;62.624;17.950;2023-07-09T00:25:54;4;3;
72908;PMS5003;61051;62.624;17.950;2023-07-09T00:28:23;5;5;
72908;PMS5003;61051;62.624;17.950;2023-07-09T00:30:51;6;6;
72908;PMS5003;61051;62.624;17.950;2023-07-09T00:33:20;10;7;
72908;PMS5003;61051;62.624;17.950;2023-07-09T00:35:49;6;6;
72908;PMS5003;61051;62.624;17.950;2023-07-09T00:38:17;5;5;
72908;PMS5003;61051;62.624;17.950;2023-07-09T00:40:47;5;5;
72908;PMS5003;61051;62.624;17.950;2023-07-09T00:43:24;6;6;
72908;PMS5003;61051;62.624;17.950;2023-07-09T00:49:35;5;5;
72908;PMS5003;61051;62.624;17.950;2023-07-09T00:52:12;9;7;
72908;PMS5003;61051;62.624;17.950;2023-07-09T00:54:49;6;6;
72908;PMS5003;61051;62.624;17.950;2023-07-09T00:57:20;6;6;
72908;PMS5003;61051;62.624;17.950;2023-07-09T00:59:52;7;7;
72908;PMS5003;61051;62.624;17.950;2023-07-09T01:02:24;7;6;
72908;PMS5003;61051;62.624;17.950;2023-07-09T01:04:55;6;6;
72908;PMS5003;61051;62.624;17.950;2023-07-09T01:07:26;5;5;
72908;PMS5003;61051;62.624;17.950;2023-07-09T01:09:55;7;6;
72908;PMS5003;61051;62.624;17.950;2023-07-09T01:12:23;8;7;
72908;PMS5003;61051;62.624;17.950;2023-07-09T01:14:54;9;8;
72908;PMS5003;61051;62.624;17.950;2023-07-09T01:17:25;6;6;
72908;PMS5003;61051;62.624;17.950;2023-07-09T01:19:55;7;7;
72908;PMS5003;61051;62.624;17.950;2023-07-09T01:22:25;6;6;
72908;PMS5003;61051;62.624;17.950;2023-07-09T01:24:55;7;5;
72908;PMS5003;61051;62.624;17.950;2023-07-09T01:27:28;7;7;
72908;PMS5003;61051;62.624;17.950;2023-07-09T01:29:59;9;7;
72908;PMS5003;61051;62.624;17.950;2023-07-09T01:32:30;6;6;
72908;PMS5003;61051;62.624;17.950;2023-07-09T01:34:59;12;9;
72908;PMS5003;61051;62.624;17.950;2023-07-09T01:37:29;11;10;
72908;PMS5003;61051;62.624;17.950;2023-07-09T01:39:57;9;9;
72908;PMS5003;61051;62.624;17.950;2023-07-09T01:42:26;7;7;
72908;PMS5003;61051;62.624;17.950;2023-07-09T01:44:55;7;7;
72908;PMS5003;61051;62.624;17.950;2023-07-09T01:47:24;9;8;
72908;PMS5003;61051;62.624;17.950;2023-07-09T01:49:53;8;8;
72908;PMS5003;61051;62.624;17.950;2023-07-09T01:52:23;8;8;
72908;PMS5003;61051;62.624;17.950;2023-07-09T01:54:53;7;7;
72908;PMS5003;61051;62.624;17.950;2023-07-09T01:57:23;17;11;
72908;PMS5003;61051;62.624;17.950;2023-07-09T01:59:54;8;8;
72908;PMS5003;61051;62.624;17.950;2023-07-09T02:02:23;6;6;
72908;PMS5003;61051;62.624;17.950;2023-07-09T02:04:53;8;8;
72908;PMS5003;61051;62.624;17.950;2023-07-09T02:07:24;12;5;
72908;PMS5003;61051;62.624;17.950;2023-07-09T02:09:54;8;7;
72908;PMS5003;61051;62.624;17.950;2023-07-09T02:12:24;11;9;
72908;PMS5003;61051;62.624;17.950;2023-07-09T02:14:52;10;10;
72908;PMS5003;61051;62.624;17.950;2023-07-09T02:17:22;9;9;
72908;PMS5003;61051;62.624;17.950;2023-07-09T02:19:50;7;7;
72908;PMS5003;61051;62.624;17.950;2023-07-09T02:22:18;9;8;
72908;PMS5003;61051;62.624;17.950;2023-07-09T02:24:47;6;5;
72908;PMS5003;61051;62.624;17.950;2023-07-09T02:27:16;8;8;
72908;PMS5003;61051;62.624;17.950;2023-07-09T02:29:45;9;6;
72908;PMS5003;61051;62.624;17.950;2023-07-09T02:32:17;7;7;
72908;PMS5003;61051;62.624;17.950;2023-07-09T02:34:47;9;9;
72908;PMS5003;61051;62.624;17.950;2023-07-09T02:37:17;6;6;
72908;PMS5003;61051;62.624;17.950;2023-07-09T02:39:45;7;6;
72908;PMS5003;61051;62.624;17.950;2023-07-09T02:42:16;9;7;
72908;PMS5003;61051;62.624;17.950;2023-07-09T02:44:45;8;8;
72908;PMS5003;61051;62.624;17.950;2023-07-09T02:47:14;6;5;
72908;PMS5003;61051;62.624;17.950;2023-07-09T02:49:44;9;6;
72908;PMS5003;61051;62.624;17.950;2023-07-09T02:52:13;7;7;
72908;PMS5003;61051;62.624;17.950;2023-07-09T02:54:41;9;8;
72908;PMS5003;61051;62.624;17.950;2023-07-09T02:57:09;5;5;
72908;PMS5003;61051;62.624;17.950;2023-07-09T02:59:37;8;8;
72908;PMS5003;61051;62.624;17.950;2023-07-09T03:02:06;7;5;
72908;PMS5003;61051;62.624;17.950;2023-07-09T03:04:34;8;8;
72908;PMS5003;61051;62.624;17.950;2023-07-09T03:07:02;8;8;
72908;PMS5003;61051;62.624;17.950;2023-07-09T03:09:30;8;8;
72908;PMS5003;61051;62.624;17.950;2023-07-09T03:11:59;9;9;
72908;PMS5003;61051;62.624;17.950;2023-07-09T03:14:27;8;8;
72908;PMS5003;61051;62.624;17.950;2023-07-09T03:16:55;9;7;
72908;PMS5003;61051;62.624;17.950;2023-07-09T03:19:23;8;8;
72908;PMS5003;61051;62.624;17.950;2023-07-09T03:21:52;7;7;
72908;PMS5003;61051;62.624;17.950;2023-07-09T03:24:21;12;7;
72908;PMS5003;61051;62.624;17.950;2023-07-09T03:26:51;9;9;
72908;PMS5003;61051;62.624;17.950;2023-07-09T03:29:19;8;8;
72908;PMS5003;61051;62.624;17.950;2023-07-09T03:31:47;9;9;
72908;PMS5003;61051;62.624;17.950;2023-07-09T03:34:15;8;8;
72908;PMS5003;61051;62.624;17.950;2023-07-09T03:36:44;9;8;
72908;PMS5003;61051;62.624;17.950;2023-07-09T03:39:13;12;9;
72908;PMS5003;61051;62.624;17.950;2023-07-09T03:41:41;9;9;
72908;PMS5003;61051;62.624;17.950;2023-07-09T03:44:10;9;9;
72908;PMS5003;61051;62.624;17.950;2023-07-09T03:46:40;6;6;
72908;PMS5003;61051;62.624;17.950;2023-07-09T03:49:08;7;7;
72908;PMS5003;61051;62.624;17.950;2023-07-09T03:51:36;7;7;
72908;PMS5003;61051;62.624;17.950;2023-07-09T03:54:05;9;9;
72908;PMS5003;61051;62.624;17.950;2023-07-09T03:56:33;6;6;
72908;PMS5003;61051;62.624;17.950;2023-07-09T03:59:01;8;7;
72908;PMS5003;61051;62.624;17.950;2023-07-09T04:03:21;6;6;
72908;PMS5003;61051;62.624;17.950;2023-07-09T04:05:51;8;7;
72908;PMS5003;61051;62.624;17.950;2023-07-09T04:08:19;8;8;
72908;PMS5003;61051;62.624;17.950;2023-07-09T04:10:47;8;8;
72908;PMS5003;61051;62.624;17.950;2023-07-09T04:13:15;7;7;
72908;PMS5003;61051;62.624;17.950;2023-07-09T04:15:43;5;5;
72908;PMS5003;61051;62.624;17.950;2023-07-09T04:18:12;6;6;
72908;PMS5003;61051;62.624;17.950;2023-07-09T04:20:41;6;6;
72908;PMS5003;61051;62.624;17.950;2023-07-09T04:23:09;6;6;
72908;PMS5003;61051;62.624;17.950;2023-07-09T04:25:39;6;6;
72908;PMS5003;61051;62.624;17.950;2023-07-09T04:28:07;9;9;
72908;PMS5003;61051;62.624;17.950;2023-07-09T04:30:35;8;7;
72908;PMS5003;61051;62.624;17.950;2023-07-09T04:33:04;8;7;
72908;PMS5003;61051;62.624;17.950;2023-07-09T04:35:32;10;8;
72908;PMS5003;61051;62.624;17.950;2023-07-09T04:38:01;9;8;
72908;PMS5003;61051;62.624;17.950;2023-07-09T04:40:30;9;8;
72908;PMS5003;61051;62.624;17.950;2023-07-09T04:42:59;8;7;
72908;PMS5003;61051;62.624;17.950;2023-07-09T04:45:27;8;7;
72908;PMS5003;61051;62.624;17.950;2023-07-09T04:47:55;8;7;
72908;PMS5003;61051;62.624;17.950;2023-07-09T04:50:23;7;7;
72908;PMS5003;61051;62.624;17.950;2023-07-09T04:52:51;7;7;
72908;PMS5003;61051;62.624;17.950;2023-07-09T04:55:19;6;5;
72908;PMS5003;61051;62.624;17.950;2023-07-09T04:57:48;10;8;
72908;PMS5003;61051;62.624;17.950;2023-07-09T05:00:17;8;8;
72908;PMS5003;61051;62.624;17.950;2023-07-09T05:02:45;8;7;
72908;PMS5003;61051;62.624;17.950;2023-07-09T05:05:14;7;7;
72908;PMS5003;61051;62.624;17.950;2023-07-09T05:07:43;10;8;
72908;PMS5003;61051;62.624;17.950;2023-07-09T05:10:13;7;7;
72908;PMS5003;61051;62.624;17.950;2023-07-09T05:12:49;9;9;
72908;PMS5003;61051;62.624;17.950;2023-07-09T05:15:20;9;9;
72908;PMS5003;61051;62.624;17.950;2023-07-09T05:17:49;9;9;
72908;PMS5003;61051;62.624;17.950;2023-07-09T05:20:17;10;9;
72908;PMS5003;61051;62.624;17.950;2023-07-09T05:22:46;13;11;
72908;PMS5003;61051;62.624;17.950;2023-07-09T05:25:14;9;9;
72908;PMS5003;61051;62.624;17.950;2023-07-09T05:27:42;11;9;
72908;PMS5003;61051;62.624;17.950;2023-07-09T05:30:11;9;9;
72908;PMS5003;61051;62.624;17.950;2023-07-09T05:32:39;10;8;
72908;PMS5003;61051;62.624;17.950;2023-07-09T05:35:07;8;8;
72908;PMS5003;61051;62.624;17.950;2023-07-09T05:37:37;9;9;
72908;PMS5003;61051;62.624;17.950;2023-07-09T05:40:07;10;9;
72908;PMS5003;61051;62.624;17.950;2023-07-09T05:42:37;8;8;
72908;PMS5003;61051;62.624;17.950;2023-07-09T05:45:06;9;9;
72908;PMS5003;61051;62.624;17.950;2023-07-09T05:47:35;8;8;
72908;PMS5003;61051;62.624;17.950;2023-07-09T05:50:03;9;9;
72908;PMS5003;61051;62.624;17.950;2023-07-09T05:52:33;11;10;
72908;PMS5003;61051;62.624;17.950;2023-07-09T05:55:03;11;9;
72908;PMS5003;61051;62.624;17.950;2023-07-09T05:57:33;10;10;
72908;PMS5003;61051;62.624;17.950;2023-07-09T06:00:01;9;9;
72908;PMS5003;61051;62.624;17.950;2023-07-09T06:02:31;11;10;
72908;PMS5003;61051;62.624;17.950;2023-07-09T06:04:59;12;11;
72908;PMS5003;61051;62.624;17.950;2023-07-09T06:07:27;14;9;
72908;PMS5003;61051;62.624;17.950;2023-07-09T06:09:55;12;11;
72908;PMS5003;61051;62.624;17.950;2023-07-09T06:12:23;14;14;
72908;PMS5003;61051;62.624;17.950;2023-07-09T06:14:52;13;13;
72908;PMS5003;61051;62.624;17.950;2023-07-09T06:17:20;14;14;
72908;PMS5003;61051;62.624;17.950;2023-07-09T06:19:48;13;10;
72908;PMS5003;61051;62.624;17.950;2023-07-09T06:22:17;20;20;
72908;PMS5003;61051;62.624;17.950;2023-07-09T06:24:45;18;17;
72908;PMS5003;61051;62.624;17.950;2023-07-09T06:27:13;13;13;
72908;PMS5003;61051;62.624;17.950;2023-07-09T06:29:41;13;13;
72908;PMS5003;61051;62.624;17.950;2023-07-09T06:32:10;19;18;
72908;PMS5003;61051;62.624;17.950;2023-07-09T06:34:38;11;10;
72908;PMS5003;61051;62.624;17.950;2023-07-09T06:37:07;12;12;
72908;PMS5003;61051;62.624;17.950;2023-07-09T06:39:35;12;11;
72908;PMS5003;61051;62.624;17.950;2023-07-09T06:42:04;11;11;
72908;PMS5003;61051;62.624;17.950;2023-07-09T06:44:33;14;12;
72908;PMS5003;61051;62.624;17.950;2023-07-09T06:47:02;9;8;
72908;PMS5003;61051;62.624;17.950;2023-07-09T06:49:32;10;8;
72908;PMS5003;61051;62.624;17.950;2023-07-09T06:52:00;11;11;
72908;PMS5003;61051;62.624;17.950;2023-07-09T06:54:30;9;8;
72908;PMS5003;61051;62.624;17.950;2023-07-09T06:56:58;11;10;
72908;PMS5003;61051;62.624;17.950;2023-07-09T06:59:27;24;20;
72908;PMS5003;61051;62.624;17.950;2023-07-09T07:01:55;10;10;
72908;PMS5003;61051;62.624;17.950;2023-07-09T07:04:25;9;9;
72908;PMS5003;61051;62.624;17.950;2023-07-09T07:06:54;9;9;
72908;PMS5003;61051;62.624;17.950;2023-07-09T07:09:23;7;7;
72908;PMS5003;61051;62.624;17.950;2023-07-09T07:11:51;10;10;
72908;PMS5003;61051;62.624;17.950;2023-07-09T07:14:19;11;10;
72908;PMS5003;61051;62.624;17.950;2023-07-09T07:16:47;9;9;
72908;PMS5003;61051;62.624;17.950;2023-07-09T07:19:16;10;9;
72908;PMS5003;61051;62.624;17.950;2023-07-09T07:21:44;11;11;
72908;PMS5003;61051;62.624;17.950;2023-07-09T07:24:12;8;8;
72908;PMS5003;61051;62.624;17.950;2023-07-09T07:26:40;9;9;
72908;PMS5003;61051;62.624;17.950;2023-07-09T07:29:09;17;10;
72908;PMS5003;61051;62.624;17.950;2023-07-09T07:31:38;9;9;
72908;PMS5003;61051;62.624;17.950;2023-07-09T07:34:06;10;10;
72908;PMS5003;61051;62.624;17.950;2023-07-09T07:36:34;10;10;
72908;PMS5003;61051;62.624;17.950;2023-07-09T07:39:02;13;11;
72908;PMS5003;61051;62.624;17.950;2023-07-09T07:41:32;9;9;
72908;PMS5003;61051;62.624;17.950;2023-07-09T07:44:00;10;10;
72908;PMS5003;61051;62.624;17.950;2023-07-09T07:46:30;12;11;
72908;PMS5003;61051;62.624;17.950;2023-07-09T07:49:02;13;11;
72908;PMS5003;61051;62.624;17.950;2023-07-09T07:51:31;13;12;
72908;PMS5003;61051;62.624;17.950;2023-07-09T07:53:59;10;10;
72908;PMS5003;61051;62.624;17.950;2023-07-09T07:56:29;10;10;
72908;PMS5003;61051;62.624;17.950;2023-07-09T07:58:57;8;8;
72908;PMS5003;61051;62.624;17.950;2023-07-09T08:01:25;9;9;
72908;PMS5003;61051;62.624;17.950;2023-07-09T08:03:53;9;8;
72908;PMS5003;61051;62.624;17.950;2023-07-09T08:06:21;10;7;
72908;PMS5003;61051;62.624;17.950;2023-07-09T08:08:49;7;7;
72908;PMS5003;61051;62.624;17.950;2023-07-09T08:11:17;7;7;
72908;PMS5003;61051;62.624;17.950;2023-07-09T08:13:45;6;6;
72908;PMS5003;61051;62.624;17.950;2023-07-09T08:16:13;5;4;
72908;PMS5003;61051;62.624;17.950;2023-07-09T08:18:42;5;5;
72908;PMS5003;61051;62.624;17.950;2023-07-09T08:21:10;8;8;
72908;PMS5003;61051;62.624;17.950;2023-07-09T08:23:38;9;9;
72908;PMS5003;61051;62.624;17.950;2023-07-09T08:26:08;8;8;
72908;PMS5003;61051;62.624;17.950;2023-07-09T08:28:36;8;8;
72908;PMS5003;61051;62.624;17.950;2023-07-09T08:31:06;9;9;
72908;PMS5003;61051;62.624;17.950;2023-07-09T08:33:34;8;8;
72908;PMS5003;61051;62.624;17.950;2023-07-09T08:36:02;7;7;
72908;PMS5003;61051;62.624;17.950;2023-07-09T08:38:31;7;6;
72908;PMS5003;61051;62.624;17.950;2023-07-09T08:41:00;10;9;
72908;PMS5003;61051;62.624;17.950;2023-07-09T08:43:36;5;4;
72908;PMS5003;61051;62.624;17.950;2023-07-09T08:46:15;9;6;
72908;PMS5003;61051;62.624;17.950;2023-07-09T08:48:48;6;4;
72908;PMS5003;61051;62.624;17.950;2023-07-09T08:51:21;4;4;
72908;PMS5003;61051;62.624;17.950;2023-07-09T08:53:57;5;5;
72908;PMS5003;61051;62.624;17.950;2023-07-09T08:56:26;5;5;
72908;PMS5003;61051;62.624;17.950;2023-07-09T08:58:59;5;5;
72908;PMS5003;61051;62.624;17.950;2023-07-09T09:01:36;7;7;
72908;PMS5003;61051;62.624;17.950;2023-07-09T09:04:13;10;8;
72908;PMS5003;61051;62.624;17.950;2023-07-09T09:06:46;6;6;
72908;PMS5003;61051;62.624;17.950;2023-07-09T09:09:24;5;5;
72908;PMS5003;61051;62.624;17.950;2023-07-09T09:11:59;6;6;
72908;PMS5003;61051;62.624;17.950;2023-07-09T09:14:37;8;7;
72908;PMS5003;61051;62.624;17.950;2023-07-09T09:17:10;8;8;
72908;PMS5003;61051;62.624;17.950;2023-07-09T09:19:44;7;7;
72908;PMS5003;61051;62.624;17.950;2023-07-09T09:22:17;11;9;
72908;PMS5003;61051;62.624;17.950;2023-07-09T09:24:55;8;8;
72908;PMS5003;61051;62.624;17.950;2023-07-09T09:27:28;10;7;
72908;PMS5003;61051;62.624;17.950;2023-07-09T09:29:56;9;9;
72908;PMS5003;61051;62.624;17.950;2023-07-09T09:32:25;10;8;
72908;PMS5003;61051;62.624;17.950;2023-07-09T09:34:56;9;8;
72908;PMS5003;61051;62.624;17.950;2023-07-09T09:37:26;9;8;
72908;PMS5003;61051;62.624;17.950;2023-07-09T09:39:58;8;7;
72908;PMS5003;61051;62.624;17.950;2023-07-09T09:42:27;7;7;
72908;PMS5003;61051;62.624;17.950;2023-07-09T09:44:55;5;5;
72908;PMS5003;61051;62.624;17.950;2023-07-09T09:47:25;9;9;
72908;PMS5003;61051;62.624;17.950;2023-07-09T09:49:54;7;7;
72908;PMS5003;61051;62.624;17.950;2023-07-09T09:52:26;9;9;
72908;PMS5003;61051;62.624;17.950;2023-07-09T09:55:02;9;9;
72908;PMS5003;61051;62.624;17.950;2023-07-09T09:57:38;11;7;
72908;PMS5003;61051;62.624;17.950;2023-07-09T10:03:20;8;8;
72908;PMS5003;61051;62.624;17.950;2023-07-09T10:05:50;8;8;
72908;PMS5003;61051;62.624;17.950;2023-07-09T10:08:25;8;7;
72908;PMS5003;61051;62.624;17.950;2023-07-09T10:11:11;7;7;
72908;PMS5003;61051;62.624;17.950;2023-07-09T10:13:45;8;8;
72908;PMS5003;61051;62.624;17.950;2023-07-09T10:16:18;10;10;
72908;PMS5003;61051;62.624;17.950;2023-07-09T10:18:53;12;11;
72908;PMS5003;61051;62.624;17.950;2023-07-09T10:21:35;9;9;
72908;PMS5003;61051;62.624;17.950;2023-07-09T10:24:12;12;10;
72908;PMS5003;61051;62.624;17.950;2023-07-09T10:26:55;12;12;
72908;PMS5003;61051;62.624;17.950;2023-07-09T10:29:36;11;11;
72908;PMS5003;61051;62.624;17.950;2023-07-09T10:32:21;10;9;
72908;PMS5003;61051;62.624;17.950;2023-07-09T10:35:00;9;8;
72908;PMS5003;61051;62.624;17.950;2023-07-09T10:37:41;9;9;
72908;PMS5003;61051;62.624;17.950;2023-07-09T10:40:21;11;11;
72908;PMS5003;61051;62.624;17.950;2023-07-09T10:42:58;10;10;
72908;PMS5003;61051;62.624;17.950;2023-07-09T10:45:30;11;9;
72908;PMS5003;61051;62.624;17.950;2023-07-09T10:48:07;12;11;
72908;PMS5003;61051;62.624;17.950;2023-07-09T10:50:41;10;10;
72908;PMS5003;61051;62.624;17.950;2023-07-09T10:53:16;11;9;
72908;PMS5003;61051;62.624;17.950;2023-07-09T10:55:59;7;7;
72908;PMS5003;61051;62.624;17.950;2023-07-09T10:58:34;12;11;
72908;PMS5003;61051;62.624;17.950;2023-07-09T11:01:05;12;10;
72908;PMS5003;61051;62.624;17.950;2023-07-09T11:03:37;12;12;
72908;PMS5003;61051;62.624;17.950;2023-07-09T11:06:13;11;11;
72908;PMS5003;61051;62.624;17.950;2023-07-09T11:08:47;11;11;
72908;PMS5003;61051;62.624;17.950;2023-07-09T11:11:23;13;12;
72908;PMS5003;61051;62.624;17.950;2023-07-09T11:14:04;14;13;
72908;PMS5003;61051;62.624;17.950;2023-07-09T11:16:40;8;8;
72908;PMS5003;61051;62.624;17.950;2023-07-09T11:19:13;9;9;
72908;PMS5003;61051;62.624;17.950;2023-07-09T11:21:56;7;7;
72908;PMS5003;61051;62.624;17.950;2023-07-09T11:24:32;11;11;
72908;PMS5003;61051;62.624;17.950;2023-07-09T11:27:02;9;9;
72908;PMS5003;61051;62.624;17.950;2023-07-09T11:29:45;11;10;
72908;PMS5003;61051;62.624;17.950;2023-07-09T11:32:18;10;9;
72908;PMS5003;61051;62.624;17.950;2023-07-09T11:34:49;9;9;
72908;PMS5003;61051;62.624;17.950;2023-07-09T11:37:17;10;10;
72908;PMS5003;61051;62.624;17.950;2023-07-09T11:39:46;8;8;
72908;PMS5003;61051;62.624;17.950;2023-07-09T11:42:25;8;8;
72908;PMS5003;61051;62.624;17.950;2023-07-09T11:44:58;8;8;
72908;PMS5003;61051;62.624;17.950;2023-07-09T11:47:31;11;11;
72908;PMS5003;61051;62.624;17.950;2023-07-09T11:50:05;8;8;
72908;PMS5003;61051;62.624;17.950;2023-07-09T11:52:43;9;7;
72908;PMS5003;61051;62.624;17.950;2023-07-09T11:55:20;8;8;
72908;PMS5003;61051;62.624;17.950;2023-07-09T11:57:54;11;9;
72908;PMS5003;61051;62.624;17.950;2023-07-09T12:00:24;9;9;
72908;PMS5003;61051;62.624;17.950;2023-07-09T12:02:55;8;8;
72908;PMS5003;61051;62.624;17.950;2023-07-09T12:05:30;10;10;
72908;PMS5003;61051;62.624;17.950;2023-07-09T12:07:59;8;7;
72908;PMS5003;61051;62.624;17.950;2023-07-09T12:10:33;8;6;
72908;PMS5003;61051;62.624;17.950;2023-07-09T12:13:04;8;6;
72908;PMS5003;61051;62.624;17.950;2023-07-09T12:15:32;4;4;
72908;PMS5003;61051;62.624;17.950;2023-07-09T12:18:01;7;7;
72908;PMS5003;61051;62.624;17.950;2023-07-09T12:20:34;8;8;
72908;PMS5003;61051;62.624;17.950;2023-07-09T12:23:09;6;6;
72908;PMS5003;61051;62.624;17.950;2023-07-09T12:25:47;6;6;
72908;PMS5003;61051;62.624;17.950;2023-07-09T12:28:16;6;6;
72908;PMS5003;61051;62.624;17.950;2023-07-09T12:30:46;8;8;
72908;PMS5003;61051;62.624;17.950;2023-07-09T12:33:16;6;6;
72908;PMS5003;61051;62.624;17.950;2023-07-09T12:35:45;7;7;
72908;PMS5003;61051;62.624;17.950;2023-07-09T12:38:17;7;6;
72908;PMS5003;61051;62.624;17.950;2023-07-09T12:40:46;5;5;
72908;PMS5003;61051;62.624;17.950;2023-07-09T12:43:17;7;7;
72908;PMS5003;61051;62.624;17.950;2023-07-09T12:45:51;7;7;
72908;PMS5003;61051;62.624;17.950;2023-07-09T12:48:20;7;7;
72908;PMS5003;61051;62.624;17.950;2023-07-09T12:50:51;5;5;
72908;PMS5003;61051;62.624;17.950;2023-07-09T12:53:20;10;7;
72908;PMS5003;61051;62.624;17.950;2023-07-09T12:55:50;11;6;
72908;PMS5003;61051;62.624;17.950;2023-07-09T12:58:22;7;6;
72908;PMS5003;61051;62.624;17.950;2023-07-09T13:00:52;6;6;
72908;PMS5003;61051;62.624;17.950;2023-07-09T13:03:33;6;6;
72908;PMS5003;61051;62.624;17.950;2023-07-09T13:06:04;5;5;
72908;PMS5003;61051;62.624;17.950;2023-07-09T13:08:40;6;6;
72908;PMS5003;61051;62.624;17.950;2023-07-09T13:11:14;5;5;
72908;PMS5003;61051;62.624;17.950;2023-07-09T13:13:53;7;7;
72908;PMS5003;61051;62.624;17.950;2023-07-09T13:16:23;6;5;
72908;PMS5003;61051;62.624;17.950;2023-07-09T13:18:52;6;6;
72908;PMS5003;61051;62.624;17.950;2023-07-09T13:21:22;7;7;
72908;PMS5003;61051;62.624;17.950;2023-07-09T13:23:52;4;4;
72908;PMS5003;61051;62.624;17.950;2023-07-09T13:26:21;2;2;
72908;PMS5003;61051;62.624;17.950;2023-07-09T13:28:49;6;6;
72908;PMS5003;61051;62.624;17.950;2023-07-09T13:31:17;4;3;
72908;PMS5003;61051;62.624;17.950;2023-07-09T13:33:50;3;3;
72908;PMS5003;61051;62.624;17.950;2023-07-09T13:36:22;3;3;
72908;PMS5003;61051;62.624;17.950;2023-07-09T13:38:50;5;4;
72908;PMS5003;61051;62.624;17.950;2023-07-09T13:41:18;3;3;
72908;PMS5003;61051;62.624;17.950;2023-07-09T13:43:48;3;3;
72908;PMS5003;61051;62.624;17.950;2023-07-09T13:46:17;4;4;
72908;PMS5003;61051;62.624;17.950;2023-07-09T13:48:47;6;5;
72908;PMS5003;61051;62.624;17.950;2023-07-09T13:51:16;3;3;
72908;PMS5003;61051;62.624;17.950;2023-07-09T13:53:46;4;4;
72908;PMS5003;61051;62.624;17.950;2023-07-09T13:56:18;3;3;
72908;PMS5003;61051;62.624;17.950;2023-07-09T13:58:46;4;4;
72908;PMS5003;61051;62.624;17.950;2023-07-09T14:01:17;3;3;
72908;PMS5003;61051;62.624;17.950;2023-07-09T14:03:49;1;1;
72908;PMS5003;61051;62.624;17.950;2023-07-09T14:06:18;3;3;
72908;PMS5003;61051;62.624;17.950;2023-07-09T14:08:46;4;4;
72908;PMS5003;61051;62.624;17.950;2023-07-09T14:11:15;4;4;
72908;PMS5003;61051;62.624;17.950;2023-07-09T14:13:46;3;3;
72908;PMS5003;61051;62.624;17.950;2023-07-09T14:16:14;4;4;
72908;PMS5003;61051;62.624;17.950;2023-07-09T14:18:43;2;2;
72908;PMS5003;61051;62.624;17.950;2023-07-09T14:21:11;6;3;
72908;PMS5003;61051;62.624;17.950;2023-07-09T14:23:42;2;2;
72908;PMS5003;61051;62.624;17.950;2023-07-09T14:26:10;4;4;
72908;PMS5003;61051;62.624;17.950;2023-07-09T14:28:38;2;2;
72908;PMS5003;61051;62.624;17.950;2023-07-09T14:31:09;3;3;
72908;PMS5003;61051;62.624;17.950;2023-07-09T14:33:46;4;4;
72908;PMS5003;61051;62.624;17.950;2023-07-09T14:36:14;3;3;
72908;PMS5003;61051;62.624;17.950;2023-07-09T14:38:42;5;5;
72908;PMS5003;61051;62.624;17.950;2023-07-09T14:41:16;6;3;
72908;PMS5003;61051;62.624;17.950;2023-07-09T14:43:49;8;6;
72908;PMS5003;61051;62.624;17.950;2023-07-09T14:46:17;3;3;
72908;PMS5003;61051;62.624;17.950;2023-07-09T14:48:45;4;4;
72908;PMS5003;61051;62.624;17.950;2023-07-09T14:51:13;1;1;
72908;PMS5003;61051;62.624;17.950;2023-07-09T14:53:42;3;3;
72908;PMS5003;61051;62.624;17.950;2023-07-09T14:56:12;4;4;
72908;PMS5003;61051;62.624;17.950;2023-07-09T14:58:42;5;4;
72908;PMS5003;61051;62.624;17.950;2023-07-09T15:01:10;4;4;
72908;PMS5003;61051;62.624;17.950;2023-07-09T15:03:40;8;6;
72908;PMS5003;61051;62.624;17.950;2023-07-09T15:06:08;3;3;
72908;PMS5003;61051;62.624;17.950;2023-07-09T15:08:36;4;4;
72908;PMS5003;61051;62.624;17.950;2023-07-09T15:11:04;5;4;
72908;PMS5003;61051;62.624;17.950;2023-07-09T15:13:33;6;4;
72908;PMS5003;61051;62.624;17.950;2023-07-09T15:16:04;4;4;
72908;PMS5003;61051;62.624;17.950;2023-07-09T15:18:34;3;3;
72908;PMS5003;61051;62.624;17.950;2023-07-09T15:21:02;11;11;
72908;PMS5003;61051;62.624;17.950;2023-07-09T15:23:31;3;3;
72908;PMS5003;61051;62.624;17.950;2023-07-09T15:26:07;4;4;
72908;PMS5003;61051;62.624;17.950;2023-07-09T15:28:40;5;5;
72908;PMS5003;61051;62.624;17.950;2023-07-09T15:31:10;4;4;
72908;PMS5003;61051;62.624;17.950;2023-07-09T15:33:39;4;4;
72908;PMS5003;61051;62.624;17.950;2023-07-09T15:36:08;4;4;
72908;PMS5003;61051;62.624;17.950;2023-07-09T15:38:39;3;3;
72908;PMS5003;61051;62.624;17.950;2023-07-09T15:41:07;7;7;
72908;PMS5003;61051;62.624;17.950;2023-07-09T15:43:40;5;5;
72908;PMS5003;61051;62.624;17.950;2023-07-09T15:46:11;5;5;
72908;PMS5003;61051;62.624;17.950;2023-07-09T15:48:46;6;6;
72908;PMS5003;61051;62.624;17.950;2023-07-09T15:51:15;4;4;
72908;PMS5003;61051;62.624;17.950;2023-07-09T15:53:45;4;4;
72908;PMS5003;61051;62.624;17.950;2023-07-09T15:56:16;6;6;
72908;PMS5003;61051;62.624;17.950;2023-07-09T15:58:50;6;6;
72908;PMS5003;61051;62.624;17.950;2023-07-09T16:03:18;5;5;
72908;PMS5003;61051;62.624;17.950;2023-07-09T16:05:48;5;4;
72908;PMS5003;61051;62.624;17.950;2023-07-09T16:08:18;3;3;
72908;PMS5003;61051;62.624;17.950;2023-07-09T16:10:46;4;4;
72908;PMS5003;61051;62.624;17.950;2023-07-09T16:13:16;7;6;
72908;PMS5003;61051;62.624;17.950;2023-07-09T16:15:47;4;4;
72908;PMS5003;61051;62.624;17.950;2023-07-09T16:18:16;4;4;
72908;PMS5003;61051;62.624;17.950;2023-07-09T16:20:45;2;2;
72908;PMS5003;61051;62.624;17.950;2023-07-09T16:23:16;5;5;
72908;PMS5003;61051;62.624;17.950;2023-07-09T16:25:47;26;18;
72908;PMS5003;61051;62.624;17.950;2023-07-09T16:28:17;3;3;
72908;PMS5003;61051;62.624;17.950;2023-07-09T16:30:48;4;4;
72908;PMS5003;61051;62.624;17.950;2023-07-09T16:33:16;13;5;
72908;PMS5003;61051;62.624;17.950;2023-07-09T16:35:44;4;4;
72908;PMS5003;61051;62.624;17.950;2023-07-09T16:38:13;4;4;
72908;PMS5003;61051;62.624;17.950;2023-07-09T16:40:41;4;4;
72908;PMS5003;61051;62.624;17.950;2023-07-09T16:43:13;4;4;
72908;PMS5003;61051;62.624;17.950;2023-07-09T16:45:43;5;4;
72908;PMS5003;61051;62.624;17.950;2023-07-09T16:48:15;5;5;
72908;PMS5003;61051;62.624;17.950;2023-07-09T16:50:44;3;3;
72908;PMS5003;61051;62.624;17.950;2023-07-09T16:53:13;3;3;
72908;PMS5003;61051;62.624;17.950;2023-07-09T16:55:42;5;5;
72908;PMS5003;61051;62.624;17.950;2023-07-09T16:58:16;7;7;
72908;PMS5003;61051;62.624;17.950;2023-07-09T17:00:47;6;4;